Time;durP1;ratioP1;P1;durP2;ratioP2;P2;SDS_P1;SDS_P2;PMS_P1;PMS_P2;Temp;Humidity;BMP_temperature;BMP_pressure;BME280_temperature;BME280_humidity;BME280_pressure;Samples;Min_cycle;Max_cycle;Signal;HPM_P1;HPM_P2
2020/12/19 00:00:49;;;;;;;60.47;38.35;;;;;;;;;;5071009;28;20370;-80
2020/12/19 00:03:15;;;;;;;57.08;36.35;;;;;;;;;;5053254;28;20362;-81
2020/12/19 00:05:41;;;;;;;57.90;36.45;;;;;;;;;;5053611;28;20366;-81
2020/12/19 00:08:07;;;;;;;55.45;36.33;;;;;;;;;;5053480;28;20377;-81
2020/12/19 00:10:33;;;;;;;55.27;35.90;;;;;;;;;;5053218;28;20533;-81
2020/12/19 00:12:59;;;;;;;55.58;35.30;;;;;;;;;;5053288;28;20373;-81
2020/12/19 00:15:26;;;;;;;54.78;35.13;;;;;;;;;;5053170;28;20471;-82
2020/12/19 00:17:52;;;;;;;55.42;35.67;;;;;;;;;;5070838;28;20393;-81
2020/12/19 00:20:18;;;;;;;59.83;36.97;;;;;;;;;;5053105;28;20366;-81
2020/12/19 00:22:44;;;;;;;55.37;35.77;;;;;;;;;;5071153;28;20390;-81
2020/12/19 00:25:10;;;;;;;58.15;36.75;;;;;;;;;;5071453;28;20417;-81
2020/12/19 00:27:36;;;;;;;67.65;38.30;;;;;;;;;;5053087;28;20872;-81
2020/12/19 00:30:03;;;;;;;55.70;35.30;;;;;;;;;;5070676;28;20354;-81
2020/12/19 00:32:29;;;;;;;61.17;36.53;;;;;;;;;;5052758;28;20869;-80
2020/12/19 00:34:55;;;;;;;58.17;36.95;;;;;;;;;;5053079;28;20365;-81
2020/12/19 00:37:21;;;;;;;58.22;36.28;;;;;;;;;;5052981;28;20399;-81
2020/12/19 00:39:47;;;;;;;62.97;38.00;;;;;;;;;;5052796;28;20733;-81
2020/12/19 00:42:13;;;;;;;57.88;36.53;;;;;;;;;;5052765;28;20374;-81
2020/12/19 00:44:39;;;;;;;60.03;37.42;;;;;;;;;;5052763;28;20369;-81
2020/12/19 00:47:05;;;;;;;59.20;38.08;;;;;;;;;;5071052;28;20733;-81
2020/12/19 00:49:31;;;;;;;65.47;40.08;;;;;;;;;;5052901;28;20399;-81
2020/12/19 00:51:57;;;;;;;53.10;35.63;;;;;;;;;;5070492;28;20714;-81
2020/12/19 00:54:23;;;;;;;56.15;36.25;;;;;;;;;;5070534;28;20382;-82
2020/12/19 00:56:52;;;;;;;57.75;36.83;;;;;;;;;;5052537;28;20521;-81
2020/12/19 00:59:18;;;;;;;61.60;38.53;;;;;;;;;;5052272;28;20386;-82
2020/12/19 01:01:44;;;;;;;58.63;37.50;;;;;;;;;;5070595;28;20752;-81
2020/12/19 01:04:10;;;;;;;58.70;37.10;;;;;;;;;;5052661;28;20363;-81
2020/12/19 01:06:36;;;;;;;60.53;37.53;;;;;;;;;;5069928;28;20366;-80
2020/12/19 01:09:04;;;;;;;57.80;38.05;;;;;;;;;;5070152;28;20698;-81
2020/12/19 01:11:30;;;;;;;60.95;38.40;;;;;;;;;;5052567;28;20467;-81
2020/12/19 01:13:57;;;;;;;62.50;39.42;;;;;;;;;;5070427;28;20450;-81
2020/12/19 01:16:24;;;;;;;64.60;39.63;;;;;;;;;;5052267;28;20398;-81
2020/12/19 01:18:51;;;;;;;62.28;39.20;;;;;;;;;;5052577;28;20910;-80
2020/12/19 01:21:23;;;;;;;62.33;39.05;;;;;;;;;;5052399;28;20376;-81
2020/12/19 01:23:49;;;;;;;68.18;42.47;;;;;;;;;;5052434;28;20369;-81
2020/12/19 01:26:16;;;;;;;61.15;40.33;;;;;;;;;;5070487;28;20366;-81
2020/12/19 01:28:42;;;;;;;69.38;40.00;;;;;;;;;;5070047;28;20380;-82
2020/12/19 01:31:10;;;;;;;68.93;41.30;;;;;;;;;;5052250;28;20377;-81
2020/12/19 01:33:36;;;;;;;61.53;39.97;;;;;;;;;;5052448;28;20366;-81
2020/12/19 01:36:02;;;;;;;65.47;41.25;;;;;;;;;;5052168;28;20366;-81
2020/12/19 01:38:29;;;;;;;72.55;43.58;;;;;;;;;;5052191;28;20946;-81
2020/12/19 01:40:56;;;;;;;74.03;45.15;;;;;;;;;;5069774;28;20416;-81
2020/12/19 01:43:22;;;;;;;70.43;41.90;;;;;;;;;;5070140;28;20836;-81
2020/12/19 01:45:48;;;;;;;72.70;43.72;;;;;;;;;;5070289;28;20840;-81
2020/12/19 01:48:23;;;;;;;64.15;41.75;;;;;;;;;;5052163;28;20377;-81
2020/12/19 01:50:49;;;;;;;62.47;38.70;;;;;;;;;;5051897;28;20908;-81
2020/12/19 01:53:21;;;;;;;59.08;38.10;;;;;;;;;;5051976;28;20453;-82
2020/12/19 01:55:49;;;;;;;64.93;38.30;;;;;;;;;;5052026;28;20417;-81
2020/12/19 01:58:15;;;;;;;64.55;39.97;;;;;;;;;;5069933;28;20439;-81
2020/12/19 02:00:41;;;;;;;66.57;42.58;;;;;;;;;;5051853;28;20435;-81
2020/12/19 02:03:07;;;;;;;82.00;48.08;;;;;;;;;;5051990;28;20420;-81
2020/12/19 02:05:35;;;;;;;77.28;45.40;;;;;;;;;;5051972;28;20378;-81
2020/12/19 02:08:02;;;;;;;78.75;45.03;;;;;;;;;;5069733;28;20362;-81
2020/12/19 02:10:33;;;;;;;57.83;38.55;;;;;;;;;;5069565;28;20480;-83
2020/12/19 02:13:03;;;;;;;52.03;35.53;;;;;;;;;;5052151;28;20374;-81
2020/12/19 02:15:45;;;;;;;51.90;34.53;;;;;;;;;;5051968;28;20381;-81
2020/12/19 02:18:12;;;;;;;53.40;34.78;;;;;;;;;;5069816;28;20900;-82
2020/12/19 02:20:38;;;;;;;53.77;35.03;;;;;;;;;;5055262;28;20408;-81
2020/12/19 02:23:06;;;;;;;52.25;33.55;;;;;;;;;;5055286;28;20463;-81
2020/12/19 02:25:33;;;;;;;54.97;34.75;;;;;;;;;;5055497;28;20378;-81
2020/12/19 02:28:02;;;;;;;51.17;33.17;;;;;;;;;;5055441;28;20775;-81
2020/12/19 02:30:28;;;;;;;48.45;32.67;;;;;;;;;;5055279;28;20401;-81
2020/12/19 02:32:54;;;;;;;53.10;34.63;;;;;;;;;;5055207;28;20370;-81
2020/12/19 02:35:21;;;;;;;46.92;31.45;;;;;;;;;;5073048;28;20841;-81
2020/12/19 02:37:47;;;;;;;49.13;32.13;;;;;;;;;;5055288;28;20432;-81
2020/12/19 02:40:13;;;;;;;51.00;32.20;;;;;;;;;;5055102;28;20377;-81
2020/12/19 02:42:39;;;;;;;53.88;32.90;;;;;;;;;;5055204;28;20366;-82
2020/12/19 02:45:05;;;;;;;48.33;32.80;;;;;;;;;;5072801;28;20415;-81
2020/12/19 02:47:31;;;;;;;51.28;32.78;;;;;;;;;;5055058;28;20453;-82
2020/12/19 02:49:57;;;;;;;47.97;32.50;;;;;;;;;;5072623;28;20397;-81
2020/12/19 02:52:23;;;;;;;46.75;32.80;;;;;;;;;;5054775;28;20487;-81
2020/12/19 02:54:49;;;;;;;55.70;33.75;;;;;;;;;;5055109;28;20374;-82
2020/12/19 02:57:15;;;;;;;54.67;35.87;;;;;;;;;;5073170;28;20389;-81
2020/12/19 02:59:41;;;;;;;65.05;38.63;;;;;;;;;;5054414;28;20887;-82
2020/12/19 03:02:07;;;;;;;52.25;34.13;;;;;;;;;;5054631;28;20370;-81
2020/12/19 03:04:33;;;;;;;55.50;35.15;;;;;;;;;;5072770;28;20365;-82
2020/12/19 03:06:59;;;;;;;56.17;37.08;;;;;;;;;;5054842;28;20759;-81
2020/12/19 03:09:24;;;;;;;77.05;42.72;;;;;;;;;;5072312;28;20449;-82
2020/12/19 03:11:50;;;;;;;65.10;39.58;;;;;;;;;;5054598;28;20413;-82
2020/12/19 03:14:18;;;;;;;68.28;41.95;;;;;;;;;;5054658;28;20363;-81
2020/12/19 03:16:44;;;;;;;73.50;41.07;;;;;;;;;;5054467;28;20912;-81
2020/12/19 03:19:10;;;;;;;66.28;41.88;;;;;;;;;;5054129;28;20366;-82
2020/12/19 03:21:36;;;;;;;59.30;39.28;;;;;;;;;;5054425;28;20869;-81
2020/12/19 03:24:02;;;;;;;64.03;39.55;;;;;;;;;;5054440;28;20373;-81
2020/12/19 03:26:28;;;;;;;65.33;39.73;;;;;;;;;;5054291;28;20382;-81
2020/12/19 03:28:54;;;;;;;58.63;37.80;;;;;;;;;;5054175;28;20371;-81
2020/12/19 03:31:20;;;;;;;58.22;37.00;;;;;;;;;;5053680;28;20366;-81
2020/12/19 03:33:46;;;;;;;59.97;39.55;;;;;;;;;;5054116;28;20397;-81
2020/12/19 03:36:12;;;;;;;55.42;36.17;;;;;;;;;;5071913;28;20848;-81
2020/12/19 03:38:38;;;;;;;57.40;37.08;;;;;;;;;;5072023;28;20362;-81
2020/12/19 03:41:04;;;;;;;62.58;38.28;;;;;;;;;;5053898;28;20394;-81
2020/12/19 03:43:30;;;;;;;77.40;44.58;;;;;;;;;;5054013;28;20884;-81
2020/12/19 03:45:56;;;;;;;55.92;36.42;;;;;;;;;;5072027;28;20366;-81
2020/12/19 03:48:22;;;;;;;61.60;38.55;;;;;;;;;;5071646;28;20362;-81
2020/12/19 03:50:48;;;;;;;64.80;38.63;;;;;;;;;;5072000;28;20362;-81
2020/12/19 03:53:14;;;;;;;64.00;39.05;;;;;;;;;;5053755;28;20374;-81
2020/12/19 03:55:40;;;;;;;58.83;36.67;;;;;;;;;;5053704;28;20362;-81
2020/12/19 03:58:06;;;;;;;71.27;41.90;;;;;;;;;;5053523;28;20470;-82
2020/12/19 04:00:32;;;;;;;57.42;35.95;;;;;;;;;;5071227;28;20366;-81
2020/12/19 04:02:58;;;;;;;63.25;39.22;;;;;;;;;;5053364;28;20852;-82
2020/12/19 04:05:24;;;;;;;58.10;38.40;;;;;;;;;;5053632;28;20405;-81
2020/12/19 04:07:50;;;;;;;59.73;37.17;;;;;;;;;;5053528;28;20445;-81
2020/12/19 04:10:16;;;;;;;54.53;35.45;;;;;;;;;;5053851;28;21023;-81
2020/12/19 04:12:42;;;;;;;61.17;37.75;;;;;;;;;;5071648;28;20366;-81
2020/12/19 04:15:09;;;;;;;55.88;34.97;;;;;;;;;;5053409;28;20403;-82
2020/12/19 04:17:36;;;;;;;55.47;34.87;;;;;;;;;;5053076;28;20386;-82
2020/12/19 04:20:02;;;;;;;52.90;34.70;;;;;;;;;;5053353;28;20406;-82
2020/12/19 04:22:28;;;;;;;62.25;38.97;;;;;;;;;;5054114;28;20441;-82
2020/12/19 04:24:54;;;;;;;52.60;34.70;;;;;;;;;;5053585;28;20469;-82
2020/12/19 04:27:20;;;;;;;54.80;34.58;;;;;;;;;;5070980;28;20784;-82
2020/12/19 04:29:46;;;;;;;65.30;39.55;;;;;;;;;;5053035;28;20461;-82
2020/12/19 04:32:12;;;;;;;62.78;39.13;;;;;;;;;;5052879;28;20445;-81
2020/12/19 04:34:38;;;;;;;58.20;38.13;;;;;;;;;;5070693;28;20449;-81
2020/12/19 04:37:04;;;;;;;60.85;38.92;;;;;;;;;;5053089;28;20481;-82
2020/12/19 04:39:30;;;;;;;62.22;38.05;;;;;;;;;;5052622;28;20374;-82
2020/12/19 04:41:56;;;;;;;57.50;35.63;;;;;;;;;;5052202;28;20443;-83
2020/12/19 04:44:22;;;;;;;55.65;36.70;;;;;;;;;;5052910;28;20445;-82
2020/12/19 04:46:48;;;;;;;56.33;36.03;;;;;;;;;;5052934;28;20481;-82
2020/12/19 04:49:15;;;;;;;58.07;35.60;;;;;;;;;;5052701;28;21243;-81
2020/12/19 04:51:41;;;;;;;49.28;32.78;;;;;;;;;;5052855;28;20449;-83
2020/12/19 04:54:07;;;;;;;56.53;35.95;;;;;;;;;;5052924;28;20482;-82
2020/12/19 04:56:34;;;;;;;52.88;34.53;;;;;;;;;;5052642;28;20439;-83
2020/12/19 04:59:01;;;;;;;52.97;32.95;;;;;;;;;;5052271;28;20386;-82
2020/12/19 05:01:27;;;;;;;46.77;32.70;;;;;;;;;;5052567;28;20366;-82
2020/12/19 05:03:54;;;;;;;48.83;33.35;;;;;;;;;;5052483;28;20381;-82
2020/12/19 05:06:21;;;;;;;51.83;34.00;;;;;;;;;;5052996;28;20362;-81
2020/12/19 05:08:47;;;;;;;48.63;32.57;;;;;;;;;;5052621;28;20932;-83
2020/12/19 05:11:14;;;;;;;47.35;32.72;;;;;;;;;;5052173;28;20388;-82
2020/12/19 05:13:41;;;;;;;52.53;33.65;;;;;;;;;;5070413;28;20449;-82
2020/12/19 05:16:07;;;;;;;50.80;34.00;;;;;;;;;;5070445;28;20355;-83
2020/12/19 05:18:35;;;;;;;60.38;36.63;;;;;;;;;;5052537;28;20916;-83
2020/12/19 05:21:01;;;;;;;54.72;36.28;;;;;;;;;;5052407;28;20811;-82
2020/12/19 05:23:28;;;;;;;55.33;34.50;;;;;;;;;;5052431;28;20377;-82
2020/12/19 05:25:55;;;;;;;56.72;35.25;;;;;;;;;;5052373;28;20466;-82
2020/12/19 05:28:21;;;;;;;52.28;35.13;;;;;;;;;;5070281;28;20396;-82
2020/12/19 05:30:47;;;;;;;55.53;35.90;;;;;;;;;;5052349;28;20456;-82
2020/12/19 05:33:15;;;;;;;58.03;37.58;;;;;;;;;;5052541;28;20470;-81
2020/12/19 05:35:41;;;;;;;62.42;38.53;;;;;;;;;;5070260;28;20358;-81
2020/12/19 05:38:07;;;;;;;64.53;39.77;;;;;;;;;;5070238;28;20400;-82
2020/12/19 05:40:34;;;;;;;58.95;37.28;;;;;;;;;;5051999;28;20409;-82
2020/12/19 05:43:01;;;;;;;51.90;34.47;;;;;;;;;;5052050;28;20359;-82
2020/12/19 05:45:27;;;;;;;50.05;34.10;;;;;;;;;;5070107;28;20365;-83
2020/12/19 05:47:53;;;;;;;53.42;35.35;;;;;;;;;;5070519;28;20778;-82
2020/12/19 05:50:20;;;;;;;54.07;35.80;;;;;;;;;;5052011;28;20409;-82
2020/12/19 05:52:47;;;;;;;65.47;39.73;;;;;;;;;;5071340;28;20853;-82
2020/12/19 05:55:14;;;;;;;65.65;40.53;;;;;;;;;;5059816;28;20377;-82
2020/12/19 05:57:41;;;;;;;56.53;37.40;;;;;;;;;;5057528;28;20749;-82
2020/12/19 06:00:08;;;;;;;63.78;40.08;;;;;;;;;;5056062;28;20919;-82
2020/12/19 06:02:37;;;;;;;63.83;38.90;;;;;;;;;;5055790;28;20384;-82
2020/12/19 06:05:05;;;;;;;56.17;37.60;;;;;;;;;;5055972;28;20563;-82
2020/12/19 06:07:35;;;;;;;73.15;43.10;;;;;;;;;;5073695;28;20864;-82
2020/12/19 06:10:01;;;;;;;73.53;45.28;;;;;;;;;;5055335;28;20717;-82
2020/12/19 06:12:37;;;;;;;78.55;45.00;;;;;;;;;;5055916;28;20409;-82
2020/12/19 06:15:04;;;;;;;67.90;43.50;;;;;;;;;;5073705;28;20401;-82
2020/12/19 06:17:43;;;;;;;70.18;43.33;;;;;;;;;;5073525;28;20386;-82
2020/12/19 06:20:10;;;;;;;76.47;44.00;;;;;;;;;;5055260;28;20458;-82
2020/12/19 06:22:36;;;;;;;75.82;45.10;;;;;;;;;;5055404;28;20369;-82
2020/12/19 06:25:02;;;;;;;75.35;44.80;;;;;;;;;;5073799;28;20464;-82
2020/12/19 06:27:28;;;;;;;92.37;52.50;;;;;;;;;;5055498;28;20473;-82
2020/12/19 06:29:54;;;;;;;90.78;51.22;;;;;;;;;;5055357;28;20378;-82
2020/12/19 06:32:21;;;;;;;87.90;52.15;;;;;;;;;;5055362;28;20401;-81
2020/12/19 06:35:05;;;;;;;82.63;47.90;;;;;;;;;;5055223;28;20374;-82
2020/12/19 06:37:39;;;;;;;84.15;47.15;;;;;;;;;;5055331;28;20398;-82
2020/12/19 06:40:11;;;;;;;80.15;47.17;;;;;;;;;;5055093;28;20385;-82
2020/12/19 06:42:37;;;;;;;94.18;50.92;;;;;;;;;;5055088;28;20381;-82
2020/12/19 06:45:22;;;;;;;75.22;45.40;;;;;;;;;;5073176;28;20369;-83
2020/12/19 06:47:48;;;;;;;93.40;55.38;;;;;;;;;;5072973;28;20370;-81
2020/12/19 06:50:14;;;;;;;96.60;52.88;;;;;;;;;;5054910;28;20366;-82
2020/12/19 06:52:52;;;;;;;101.30;53.50;;;;;;;;;;5054823;28;20374;-82
2020/12/19 06:55:18;;;;;;;99.90;55.10;;;;;;;;;;5072921;28;20391;-81
2020/12/19 06:57:50;;;;;;;96.47;53.83;;;;;;;;;;5072573;28;20393;-82
2020/12/19 07:00:16;;;;;;;88.45;50.45;;;;;;;;;;5054640;28;20366;-81
2020/12/19 07:02:55;;;;;;;93.97;51.15;;;;;;;;;;5072707;28;20358;-82
2020/12/19 07:05:22;;;;;;;85.75;50.08;;;;;;;;;;5071887;28;20358;-82
2020/12/19 07:07:49;;;;;;;90.50;50.50;;;;;;;;;;5054772;28;20374;-82
2020/12/19 07:10:15;;;;;;;93.93;50.17;;;;;;;;;;5054342;28;20914;-81
2020/12/19 07:12:43;;;;;;;93.75;50.55;;;;;;;;;;5054474;28;20732;-82
2020/12/19 07:15:10;;;;;;;86.57;49.63;;;;;;;;;;5054407;28;20371;-82
2020/12/19 07:17:46;;;;;;;93.65;51.65;;;;;;;;;;5072299;28;20710;-83
2020/12/19 07:20:13;;;;;;;93.20;50.00;;;;;;;;;;5054301;28;20721;-83
2020/12/19 07:22:39;;;;;;;81.70;47.72;;;;;;;;;;5054333;28;20453;-83
2020/12/19 07:25:05;;;;;;;99.65;51.50;;;;;;;;;;5054218;28;20366;-82
2020/12/19 07:27:31;;;;;;;85.65;47.08;;;;;;;;;;5054476;28;20904;-82
2020/12/19 07:29:58;;;;;;;97.23;49.50;;;;;;;;;;5054185;28;20455;-82
2020/12/19 07:32:24;;;;;;;91.97;49.92;;;;;;;;;;5054398;28;20936;-83
2020/12/19 07:34:57;;;;;;;97.97;51.88;;;;;;;;;;5072115;28;20358;-83
2020/12/19 07:37:23;;;;;;;89.75;50.42;;;;;;;;;;5054739;28;20386;-83
2020/12/19 07:39:49;;;;;;;91.25;49.08;;;;;;;;;;5056643;28;20382;-82
2020/12/19 07:42:16;;;;;;;91.32;47.03;;;;;;;;;;5054230;28;20706;-82
2020/12/19 07:44:42;;;;;;;82.90;47.35;;;;;;;;;;5072100;28;20358;-82
2020/12/19 07:47:09;;;;;;;86.43;47.92;;;;;;;;;;5054563;28;20366;-82
2020/12/19 07:49:37;;;;;;;87.97;48.17;;;;;;;;;;5072949;28;20366;-83
2020/12/19 07:52:04;;;;;;;85.57;48.60;;;;;;;;;;5057606;28;20370;-83
2020/12/19 07:54:30;;;;;;;85.17;45.67;;;;;;;;;;5054069;28;20366;-83
2020/12/19 07:56:56;;;;;;;84.57;45.72;;;;;;;;;;5053960;28;20390;-82
2020/12/19 07:59:23;;;;;;;77.60;44.70;;;;;;;;;;5053332;28;20523;-83
2020/12/19 08:01:49;;;;;;;74.75;42.67;;;;;;;;;;5053628;28;20381;-83
2020/12/19 08:04:15;;;;;;;79.78;43.72;;;;;;;;;;5071572;28;20366;-82
2020/12/19 08:06:42;;;;;;;73.63;43.37;;;;;;;;;;5071340;28;20705;-82
2020/12/19 08:09:08;;;;;;;77.03;42.30;;;;;;;;;;5053202;28;20366;-82
2020/12/19 08:11:44;;;;;;;71.15;41.50;;;;;;;;;;5053345;28;20378;-82
2020/12/19 08:14:10;;;;;;;78.50;44.42;;;;;;;;;;5071024;28;20445;-82
2020/12/19 08:16:37;;;;;;;81.88;47.63;;;;;;;;;;5069634;28;21100;-84
2020/12/19 08:19:04;;;;;;;75.13;44.80;;;;;;;;;;5052445;28;20380;-83
2020/12/19 08:21:30;;;;;;;72.47;43.53;;;;;;;;;;5070791;28;20358;-82
2020/12/19 08:23:56;;;;;;;66.72;39.22;;;;;;;;;;5070676;28;20446;-81
2020/12/19 08:26:22;;;;;;;58.97;36.33;;;;;;;;;;5052633;28;20460;-81
2020/12/19 08:29:01;;;;;;;60.40;37.05;;;;;;;;;;5052740;28;20370;-83
2020/12/19 08:31:28;;;;;;;57.28;35.65;;;;;;;;;;5070811;28;20445;-82
2020/12/19 08:33:56;;;;;;;59.75;37.85;;;;;;;;;;5052871;28;20405;-82
2020/12/19 08:36:22;;;;;;;57.72;35.90;;;;;;;;;;5071104;28;20366;-82
2020/12/19 08:38:48;;;;;;;57.83;36.15;;;;;;;;;;5038225;28;20380;-79
2020/12/19 08:41:21;;;;;;;66.87;38.90;;;;;;;;;;5051335;28;20896;-84
2020/12/19 08:43:47;;;;;;;50.40;33.08;;;;;;;;;;5063100;28;20409;-83
2020/12/19 08:46:14;;;;;;;56.28;34.88;;;;;;;;;;5065430;28;20373;-82
2020/12/19 08:48:41;;;;;;;52.08;33.80;;;;;;;;;;5055529;28;20376;-83
2020/12/19 08:51:19;;;;;;;47.70;32.35;;;;;;;;;;5035649;28;20454;-82
2020/12/19 08:53:45;;;;;;;48.97;31.13;;;;;;;;;;5042394;28;20387;-83
2020/12/19 08:56:16;;;;;;;45.88;30.70;;;;;;;;;;5038357;28;20412;-82
2020/12/19 08:58:42;;;;;;;45.88;31.05;;;;;;;;;;5057440;28;20414;-83
2020/12/19 09:01:15;;;;;;;42.70;29.05;;;;;;;;;;5042325;28;20386;-82
2020/12/19 09:03:42;;;;;;;43.20;29.55;;;;;;;;;;5037108;28;20368;-82
2020/12/19 09:06:10;;;;;;;41.38;29.10;;;;;;;;;;5040334;28;20402;-82
2020/12/19 09:08:37;;;;;;;42.67;28.83;;;;;;;;;;5042651;28;20389;-84
2020/12/19 09:11:05;;;;;;;42.53;28.85;;;;;;;;;;5037781;28;20429;-80
2020/12/19 09:13:32;;;;;;;39.65;27.52;;;;;;;;;;5037641;28;20431;-81
2020/12/19 09:16:04;;;;;;;38.40;27.38;;;;;;;;;;5040478;28;20410;-82
2020/12/19 09:18:34;;;;;;;37.20;27.42;;;;;;;;;;5057069;28;20761;-88
2020/12/19 09:21:01;;;;;;;38.10;26.40;;;;;;;;;;5058989;28;20389;-84
2020/12/19 09:23:28;;;;;;;35.03;25.38;;;;;;;;;;5036692;28;20402;-83
2020/12/19 09:25:55;;;;;;;35.58;25.40;;;;;;;;;;5055016;28;20379;-84
2020/12/19 09:28:22;;;;;;;34.38;24.63;;;;;;;;;;5039300;28;20402;-83
2020/12/19 09:30:48;;;;;;;31.17;23.13;;;;;;;;;;5062616;28;20462;-81
2020/12/19 09:33:14;;;;;;;32.35;24.33;;;;;;;;;;5042169;28;20422;-81
2020/12/19 09:35:40;;;;;;;34.97;24.33;;;;;;;;;;5044551;28;20856;-83
2020/12/19 09:38:07;;;;;;;33.53;23.93;;;;;;;;;;5062069;28;20463;-84
2020/12/19 09:40:33;;;;;;;27.85;21.63;;;;;;;;;;5038767;28;20931;-84
2020/12/19 09:43:00;;;;;;;28.58;22.83;;;;;;;;;;5042938;28;20376;-83
2020/12/19 09:45:26;;;;;;;30.45;23.20;;;;;;;;;;5046192;28;20378;-83
2020/12/19 09:47:53;;;;;;;27.05;21.30;;;;;;;;;;5056948;28;20371;-83
2020/12/19 09:50:19;;;;;;;29.57;21.57;;;;;;;;;;5042044;28;20439;-84
2020/12/19 09:52:45;;;;;;;29.03;21.93;;;;;;;;;;5043069;28;20376;-85
2020/12/19 09:55:11;;;;;;;27.55;20.77;;;;;;;;;;5040505;28;20389;-84
2020/12/19 09:57:37;;;;;;;24.38;20.35;;;;;;;;;;5041598;28;20410;-84
2020/12/19 10:00:05;;;;;;;24.98;19.73;;;;;;;;;;5063169;28;20447;-83
2020/12/19 10:02:31;;;;;;;24.58;19.73;;;;;;;;;;5041667;28;20961;-83
2020/12/19 10:04:57;;;;;;;23.40;18.75;;;;;;;;;;5042481;28;21231;-85
2020/12/19 10:07:25;;;;;;;24.13;19.47;;;;;;;;;;5045202;28;20454;-86
2020/12/19 10:09:52;;;;;;;24.05;18.58;;;;;;;;;;5040757;28;20370;-81
2020/12/19 10:12:18;;;;;;;22.30;17.75;;;;;;;;;;5045342;28;20736;-83
2020/12/19 10:14:44;;;;;;;20.95;16.50;;;;;;;;;;5041290;28;20469;-83
2020/12/19 10:17:11;;;;;;;21.98;17.67;;;;;;;;;;5046127;28;20810;-81
2020/12/19 10:19:37;;;;;;;20.93;16.33;;;;;;;;;;5044381;28;20884;-81
2020/12/19 10:22:03;;;;;;;19.58;16.40;;;;;;;;;;5038937;28;20390;-83
2020/12/19 10:24:30;;;;;;;19.42;16.38;;;;;;;;;;5060006;28;20473;-82
2020/12/19 10:26:56;;;;;;;21.67;16.87;;;;;;;;;;5065311;28;20370;-84
2020/12/19 10:29:22;;;;;;;17.65;15.20;;;;;;;;;;5071226;28;20775;-81
2020/12/19 10:31:48;;;;;;;17.30;14.95;;;;;;;;;;5033636;28;20387;-79
2020/12/19 10:34:14;;;;;;;17.63;14.90;;;;;;;;;;5043049;28;20396;-79
2020/12/19 10:36:41;;;;;;;17.10;14.52;;;;;;;;;;5041134;28;20417;-81
2020/12/19 10:39:07;;;;;;;18.17;15.15;;;;;;;;;;5060250;28;20372;-79
2020/12/19 10:41:33;;;;;;;16.53;13.33;;;;;;;;;;5044593;28;20378;-83
2020/12/19 10:43:59;;;;;;;14.52;12.65;;;;;;;;;;5045053;28;20409;-84
2020/12/19 10:46:26;;;;;;;16.27;13.45;;;;;;;;;;5063428;28;20371;-83
2020/12/19 10:48:52;;;;;;;14.48;12.90;;;;;;;;;;5061504;28;20396;-81
2020/12/19 10:51:25;;;;;;;13.48;11.88;;;;;;;;;;5043214;28;20374;-83
2020/12/19 10:53:51;;;;;;;14.30;12.37;;;;;;;;;;5043478;28;20976;-87
2020/12/19 10:56:18;;;;;;;12.75;11.40;;;;;;;;;;5043279;28;20406;-85
2020/12/19 10:58:44;;;;;;;13.40;12.00;;;;;;;;;;5042656;28;20423;-84
2020/12/19 11:01:10;;;;;;;12.20;10.90;;;;;;;;;;5044950;28;20779;-83
2020/12/19 11:03:36;;;;;;;13.18;11.63;;;;;;;;;;5062734;28;20381;-83
2020/12/19 11:06:03;;;;;;;12.18;10.98;;;;;;;;;;5044688;28;20403;-84
2020/12/19 11:08:29;;;;;;;13.13;10.98;;;;;;;;;;5043284;28;20386;-84
2020/12/19 11:10:55;;;;;;;12.30;11.00;;;;;;;;;;5044120;28;20949;-84
2020/12/19 11:13:22;;;;;;;11.30;10.03;;;;;;;;;;5044204;28;20422;-84
2020/12/19 11:15:48;;;;;;;13.80;10.43;;;;;;;;;;5043785;28;20473;-83
2020/12/19 11:18:14;;;;;;;12.90;10.13;;;;;;;;;;5044646;28;20501;-84
2020/12/19 11:20:40;;;;;;;12.27;9.93;;;;;;;;;;5061713;28;20370;-83
2020/12/19 11:23:06;;;;;;;11.15;10.00;;;;;;;;;;5042654;28;20366;-84
2020/12/19 11:25:32;;;;;;;9.90;8.80;;;;;;;;;;5062410;28;20429;-83
2020/12/19 11:27:58;;;;;;;13.73;12.00;;;;;;;;;;5043617;28;20394;-86
2020/12/19 11:30:24;;;;;;;12.07;10.43;;;;;;;;;;5061996;28;20892;-83
2020/12/19 11:32:50;;;;;;;10.00;8.95;;;;;;;;;;5065122;28;20771;-84
2020/12/19 11:35:16;;;;;;;9.90;8.73;;;;;;;;;;5045828;28;20418;-84
2020/12/19 11:37:42;;;;;;;10.75;8.30;;;;;;;;;;5043520;28;20425;-86
2020/12/19 11:40:08;;;;;;;10.00;9.00;;;;;;;;;;5049581;28;20775;-83
2020/12/19 11:42:40;;;;;;;10.48;8.45;;;;;;;;;;5068218;28;20402;-83
2020/12/19 11:45:08;;;;;;;10.10;8.80;;;;;;;;;;5058761;28;20399;-84
2020/12/19 11:47:35;;;;;;;11.05;8.80;;;;;;;;;;5058179;28;20358;-83
2020/12/19 11:50:02;;;;;;;9.27;8.18;;;;;;;;;;5038607;28;20463;-83
2020/12/19 11:52:28;;;;;;;8.55;7.65;;;;;;;;;;5037438;28;20914;-82
2020/12/19 11:54:54;;;;;;;10.50;7.80;;;;;;;;;;5069320;28;20481;-81
2020/12/19 11:57:20;;;;;;;8.27;7.18;;;;;;;;;;5038655;28;20444;-84
2020/12/19 11:59:46;;;;;;;9.40;7.82;;;;;;;;;;5036360;28;20379;-84
2020/12/19 12:02:12;;;;;;;9.00;7.43;;;;;;;;;;5040382;28;20375;-84
2020/12/19 12:04:38;;;;;;;9.20;7.78;;;;;;;;;;5039662;28;20878;-84
2020/12/19 12:07:04;;;;;;;10.10;7.83;;;;;;;;;;5056911;28;20368;-84
2020/12/19 12:09:30;;;;;;;8.13;7.10;;;;;;;;;;5042011;28;20372;-84
2020/12/19 12:11:56;;;;;;;7.82;7.03;;;;;;;;;;5044127;28;20871;-84
2020/12/19 12:14:25;;;;;;;9.45;7.35;;;;;;;;;;5041867;28;20364;-85
2020/12/19 12:16:51;;;;;;;9.05;6.90;;;;;;;;;;5043396;28;20401;-83
2020/12/19 12:19:17;;;;;;;7.47;6.75;;;;;;;;;;5041410;28;20601;-85
2020/12/19 12:21:45;;;;;;;8.05;6.93;;;;;;;;;;5042980;28;20704;-85
2020/12/19 12:24:14;;;;;;;8.43;6.75;;;;;;;;;;5043695;28;20872;-85
2020/12/19 12:26:40;;;;;;;7.60;6.80;;;;;;;;;;5058694;28;20363;-84
2020/12/19 12:29:07;;;;;;;8.23;6.88;;;;;;;;;;5039493;28;20688;-84
2020/12/19 12:31:35;;;;;;;7.53;6.73;;;;;;;;;;5035947;28;20382;-84
2020/12/19 12:34:01;;;;;;;7.30;6.22;;;;;;;;;;5037236;28;20429;-84
2020/12/19 12:36:29;;;;;;;8.18;6.72;;;;;;;;;;5039685;28;20384;-84
2020/12/19 12:38:55;;;;;;;7.07;6.35;;;;;;;;;;5040307;28;20756;-84
2020/12/19 12:41:23;;;;;;;6.83;6.13;;;;;;;;;;5036759;28;20369;-84
2020/12/19 12:43:49;;;;;;;7.90;6.35;;;;;;;;;;5044512;28;20382;-85
2020/12/19 12:46:17;;;;;;;6.70;6.10;;;;;;;;;;5042985;28;20375;-85
2020/12/19 12:48:43;;;;;;;8.52;6.15;;;;;;;;;;5046795;28;20384;-85
2020/12/19 12:51:10;;;;;;;10.23;7.68;;;;;;;;;;5041901;28;20389;-86
2020/12/19 12:53:36;;;;;;;7.32;6.55;;;;;;;;;;5041434;28;20362;-86
2020/12/19 12:56:03;;;;;;;7.05;6.13;;;;;;;;;;5051002;28;20382;-86
2020/12/19 12:58:29;;;;;;;7.43;6.43;;;;;;;;;;5064993;28;20413;-85
2020/12/19 13:00:55;;;;;;;8.43;6.40;;;;;;;;;;5050609;28;20436;-87
2020/12/19 13:03:22;;;;;;;8.40;7.03;;;;;;;;;;5050373;28;20431;-86
2020/12/19 13:05:48;;;;;;;7.75;6.47;;;;;;;;;;5041310;28;20370;-85
2020/12/19 13:08:14;;;;;;;8.05;6.57;;;;;;;;;;5047225;28;20880;-85
2020/12/19 13:10:41;;;;;;;8.52;7.32;;;;;;;;;;5044526;28;20421;-86
2020/12/19 13:13:07;;;;;;;7.60;6.80;;;;;;;;;;5048565;28;20382;-86
2020/12/19 13:15:33;;;;;;;8.60;7.13;;;;;;;;;;5035129;28;20367;-86
2020/12/19 13:18:01;;;;;;;10.48;8.20;;;;;;;;;;5046318;28;20405;-86
2020/12/19 13:20:30;;;;;;;11.52;10.27;;;;;;;;;;5032500;28;20463;-85
2020/12/19 13:22:57;;;;;;;10.73;8.57;;;;;;;;;;5042092;28;20373;-86
2020/12/19 13:25:24;;;;;;;9.93;8.38;;;;;;;;;;5052784;28;20367;-87
2020/12/19 13:27:50;;;;;;;9.52;6.88;;;;;;;;;;5039422;28;20375;-85
2020/12/19 13:30:16;;;;;;;8.18;6.82;;;;;;;;;;5048175;28;20387;-85
2020/12/19 13:32:42;;;;;;;7.88;6.90;;;;;;;;;;5051446;28;20385;-86
2020/12/19 13:35:08;;;;;;;8.17;6.60;;;;;;;;;;5045378;28;20475;-87
2020/12/19 13:37:34;;;;;;;9.40;6.90;;;;;;;;;;5041801;28;20479;-85
2020/12/19 13:40:01;;;;;;;7.65;6.80;;;;;;;;;;5044380;28;20384;-86
2020/12/19 13:42:27;;;;;;;8.85;7.95;;;;;;;;;;5052168;28;20370;-86
2020/12/19 13:44:53;;;;;;;8.43;7.00;;;;;;;;;;5041495;28;20409;-85
2020/12/19 13:47:19;;;;;;;7.88;6.97;;;;;;;;;;5041593;28;20383;-86
2020/12/19 13:49:45;;;;;;;8.33;6.60;;;;;;;;;;5046910;28;20379;-87
2020/12/19 13:52:22;;;;;;;7.75;6.70;;;;;;;;;;5038022;28;20368;-87
2020/12/19 13:54:48;;;;;;;8.07;6.60;;;;;;;;;;5049159;28;20861;-86
2020/12/19 13:57:17;;;;;;;8.25;6.80;;;;;;;;;;5050088;28;20402;-86
2020/12/19 13:59:43;;;;;;;8.40;7.28;;;;;;;;;;5034169;28;20464;-86
2020/12/19 14:02:10;;;;;;;8.00;7.20;;;;;;;;;;5043770;28;20766;-87
2020/12/19 14:04:39;;;;;;;9.02;7.43;;;;;;;;;;5046306;28;20367;-86
2020/12/19 14:07:08;;;;;;;8.20;7.40;;;;;;;;;;5036348;28;20417;-85
2020/12/19 14:09:34;;;;;;;8.80;7.83;;;;;;;;;;5060571;28;20372;-87
2020/12/19 14:12:04;;;;;;;8.55;7.50;;;;;;;;;;5037628;28;20414;-86
2020/12/19 14:14:34;;;;;;;8.98;7.53;;;;;;;;;;5034126;28;20360;-85
2020/12/19 14:17:04;;;;;;;11.35;10.18;;;;;;;;;;5032347;28;20429;-86
2020/12/19 14:19:30;;;;;;;15.43;13.67;;;;;;;;;;5042783;28;21002;-85